sensor_id;sensor_type;location;lat;lon;timestamp;temperature;humidity
74416;SHT31;62850;42.428;25.618;2023-10-09T00:01:07;21.34;48.55
74416;SHT31;62850;42.428;25.618;2023-10-09T00:03:40;21.19;48.20
74416;SHT31;62850;42.428;25.618;2023-10-09T00:06:07;20.49;47.74
74416;SHT31;62850;42.428;25.618;2023-10-09T00:08:33;20.04;48.05
74416;SHT31;62850;42.428;25.618;2023-10-09T00:11:01;19.75;48.91
74416;SHT31;62850;42.428;25.618;2023-10-09T00:13:41;19.37;48.61
74416;SHT31;62850;42.428;25.618;2023-10-09T00:16:22;19.09;49.98
74416;SHT31;62850;42.428;25.618;2023-10-09T00:19:08;18.89;49.53
74416;SHT31;62850;42.428;25.618;2023-10-09T00:21:48;18.78;50.53
74416;SHT31;62850;42.428;25.618;2023-10-09T00:24:14;18.58;50.49
74416;SHT31;62850;42.428;25.618;2023-10-09T00:26:55;18.47;50.98
74416;SHT31;62850;42.428;25.618;2023-10-09T00:29:21;18.26;50.18
74416;SHT31;62850;42.428;25.618;2023-10-09T00:31:50;18.03;50.21
74416;SHT31;62850;42.428;25.618;2023-10-09T00:34:17;17.81;50.15
74416;SHT31;62850;42.428;25.618;2023-10-09T00:36:47;17.49;51.43
74416;SHT31;62850;42.428;25.618;2023-10-09T00:39:16;17.38;51.71
74416;SHT31;62850;42.428;25.618;2023-10-09T00:41:59;17.32;51.39
74416;SHT31;62850;42.428;25.618;2023-10-09T00:44:27;17.14;51.65
74416;SHT31;62850;42.428;25.618;2023-10-09T00:47:04;17.17;51.48
74416;SHT31;62850;42.428;25.618;2023-10-09T00:49:37;17.06;51.86
74416;SHT31;62850;42.428;25.618;2023-10-09T00:52:08;16.97;51.74
74416;SHT31;62850;42.428;25.618;2023-10-09T00:54:43;16.93;51.66
74416;SHT31;62850;42.428;25.618;2023-10-09T00:57:09;16.75;52.22
74416;SHT31;62850;42.428;25.618;2023-10-09T00:59:40;16.72;51.80
74416;SHT31;62850;42.428;25.618;2023-10-09T01:02:08;16.63;51.83
74416;SHT31;62850;42.428;25.618;2023-10-09T01:04:35;16.56;52.56
74416;SHT31;62850;42.428;25.618;2023-10-09T01:07:08;16.44;52.86
74416;SHT31;62850;42.428;25.618;2023-10-09T01:09:40;16.48;52.34
74416;SHT31;62850;42.428;25.618;2023-10-09T01:12:09;16.49;52.45
74416;SHT31;62850;42.428;25.618;2023-10-09T01:14:42;16.49;52.27
74416;SHT31;62850;42.428;25.618;2023-10-09T01:17:09;16.45;52.40
74416;SHT31;62850;42.428;25.618;2023-10-09T01:19:35;16.39;52.43
74416;SHT31;62850;42.428;25.618;2023-10-09T01:22:01;16.38;52.30
74416;SHT31;62850;42.428;25.618;2023-10-09T01:24:40;16.32;52.48
74416;SHT31;62850;42.428;25.618;2023-10-09T01:27:06;16.26;52.12
74416;SHT31;62850;42.428;25.618;2023-10-09T01:29:41;16.26;52.14
74416;SHT31;62850;42.428;25.618;2023-10-09T01:32:08;16.19;52.32
74416;SHT31;62850;42.428;25.618;2023-10-09T01:34:42;16.12;52.45
74416;SHT31;62850;42.428;25.618;2023-10-09T01:37:08;16.11;52.83
74416;SHT31;62850;42.428;25.618;2023-10-09T01:39:41;16.11;52.36
74416;SHT31;62850;42.428;25.618;2023-10-09T01:42:08;16.05;52.85
74416;SHT31;62850;42.428;25.618;2023-10-09T01:44:35;16.04;52.47
74416;SHT31;62850;42.428;25.618;2023-10-09T01:47:04;15.98;52.46
74416;SHT31;62850;42.428;25.618;2023-10-09T01:49:36;15.81;52.98
74416;SHT31;62850;42.428;25.618;2023-10-09T01:52:07;15.77;53.92
74416;SHT31;62850;42.428;25.618;2023-10-09T01:54:38;15.80;53.46
74416;SHT31;62850;42.428;25.618;2023-10-09T01:57:07;15.80;53.66
74416;SHT31;62850;42.428;25.618;2023-10-09T01:59:42;15.73;53.47
74416;SHT31;62850;42.428;25.618;2023-10-09T02:02:14;15.67;53.59
74416;SHT31;62850;42.428;25.618;2023-10-09T02:04:56;15.64;53.41
74416;SHT31;62850;42.428;25.618;2023-10-09T02:07:42;15.69;52.87
74416;SHT31;62850;42.428;25.618;2023-10-09T02:10:21;15.63;53.56
74416;SHT31;62850;42.428;25.618;2023-10-09T02:12:54;15.64;53.22
74416;SHT31;62850;42.428;25.618;2023-10-09T02:18:10;15.51;53.56
74416;SHT31;62850;42.428;25.618;2023-10-09T02:20:46;15.54;52.80
74416;SHT31;62850;42.428;25.618;2023-10-09T02:23:13;15.50;52.49
74416;SHT31;62850;42.428;25.618;2023-10-09T02:25:40;15.46;51.61
74416;SHT31;62850;42.428;25.618;2023-10-09T02:28:09;15.38;50.71
74416;SHT31;62850;42.428;25.618;2023-10-09T02:30:45;15.28;48.63
74416;SHT31;62850;42.428;25.618;2023-10-09T02:33:16;15.19;48.76
74416;SHT31;62850;42.428;25.618;2023-10-09T02:35:56;15.22;47.27
74416;SHT31;62850;42.428;25.618;2023-10-09T02:38:25;15.16;48.00
74416;SHT31;62850;42.428;25.618;2023-10-09T02:40:51;15.11;47.12
74416;SHT31;62850;42.428;25.618;2023-10-09T02:43:30;15.02;46.83
74416;SHT31;62850;42.428;25.618;2023-10-09T02:46:15;14.99;46.40
74416;SHT31;62850;42.428;25.618;2023-10-09T02:48:44;14.92;46.75
74416;SHT31;62850;42.428;25.618;2023-10-09T02:51:13;14.92;45.66
74416;SHT31;62850;42.428;25.618;2023-10-09T02:53:46;14.80;45.03
74416;SHT31;62850;42.428;25.618;2023-10-09T02:56:15;14.54;46.04
74416;SHT31;62850;42.428;25.618;2023-10-09T02:58:43;14.59;45.75
74416;SHT31;62850;42.428;25.618;2023-10-09T03:01:12;14.54;45.09
74416;SHT31;62850;42.428;25.618;2023-10-09T03:03:40;14.56;46.11
74416;SHT31;62850;42.428;25.618;2023-10-09T03:06:10;14.59;44.91
74416;SHT31;62850;42.428;25.618;2023-10-09T03:08:38;14.50;45.48
74416;SHT31;62850;42.428;25.618;2023-10-09T03:11:07;14.44;45.93
74416;SHT31;62850;42.428;25.618;2023-10-09T03:13:47;14.50;45.32
74416;SHT31;62850;42.428;25.618;2023-10-09T03:16:13;14.47;45.43
74416;SHT31;62850;42.428;25.618;2023-10-09T03:18:50;14.45;44.65
74416;SHT31;62850;42.428;25.618;2023-10-09T03:21:16;14.44;44.98
74416;SHT31;62850;42.428;25.618;2023-10-09T03:23:46;14.50;45.04
74416;SHT31;62850;42.428;25.618;2023-10-09T03:26:18;14.43;44.90
74416;SHT31;62850;42.428;25.618;2023-10-09T03:28:45;14.33;46.14
74416;SHT31;62850;42.428;25.618;2023-10-09T03:31:11;14.38;46.43
74416;SHT31;62850;42.428;25.618;2023-10-09T03:33:37;14.32;45.54
74416;SHT31;62850;42.428;25.618;2023-10-09T03:36:04;14.43;45.48
74416;SHT31;62850;42.428;25.618;2023-10-09T03:38:37;14.30;45.41
74416;SHT31;62850;42.428;25.618;2023-10-09T03:41:07;14.22;45.81
74416;SHT31;62850;42.428;25.618;2023-10-09T03:43:35;14.20;45.70
74416;SHT31;62850;42.428;25.618;2023-10-09T03:46:08;14.14;46.33
74416;SHT31;62850;42.428;25.618;2023-10-09T03:48:49;14.14;46.38
74416;SHT31;62850;42.428;25.618;2023-10-09T03:51:17;14.10;45.97
74416;SHT31;62850;42.428;25.618;2023-10-09T03:53:49;14.09;45.86
74416;SHT31;62850;42.428;25.618;2023-10-09T03:56:16;14.10;45.97
74416;SHT31;62850;42.428;25.618;2023-10-09T03:58:47;14.09;46.74
74416;SHT31;62850;42.428;25.618;2023-10-09T04:01:19;14.05;46.93
74416;SHT31;62850;42.428;25.618;2023-10-09T04:03:51;14.05;46.08
74416;SHT31;62850;42.428;25.618;2023-10-09T04:06:29;14.01;47.22
74416;SHT31;62850;42.428;25.618;2023-10-09T04:09:08;13.99;46.85
74416;SHT31;62850;42.428;25.618;2023-10-09T04:11:43;14.02;46.45
74416;SHT31;62850;42.428;25.618;2023-10-09T04:14:12;13.96;47.22
74416;SHT31;62850;42.428;25.618;2023-10-09T04:16:47;13.85;47.53
74416;SHT31;62850;42.428;25.618;2023-10-09T04:19:29;13.85;47.24
74416;SHT31;62850;42.428;25.618;2023-10-09T04:22:04;13.86;47.63
74416;SHT31;62850;42.428;25.618;2023-10-09T04:24:32;13.93;47.92
74416;SHT31;62850;42.428;25.618;2023-10-09T04:27:06;13.96;47.55
74416;SHT31;62850;42.428;25.618;2023-10-09T04:29:33;13.90;46.62
74416;SHT31;62850;42.428;25.618;2023-10-09T04:32:05;13.93;47.56
74416;SHT31;62850;42.428;25.618;2023-10-09T04:34:41;13.79;47.86
74416;SHT31;62850;42.428;25.618;2023-10-09T04:37:15;13.87;47.34
74416;SHT31;62850;42.428;25.618;2023-10-09T04:39:43;13.92;47.62
74416;SHT31;62850;42.428;25.618;2023-10-09T04:42:37;13.96;49.48
74416;SHT31;62850;42.428;25.618;2023-10-09T04:45:04;14.05;49.13
74416;SHT31;62850;42.428;25.618;2023-10-09T04:47:34;14.09;49.00
74416;SHT31;62850;42.428;25.618;2023-10-09T04:50:06;14.10;48.07
74416;SHT31;62850;42.428;25.618;2023-10-09T04:52:32;14.08;47.41
74416;SHT31;62850;42.428;25.618;2023-10-09T04:54:58;14.09;47.75
74416;SHT31;62850;42.428;25.618;2023-10-09T04:57:37;14.14;47.76
74416;SHT31;62850;42.428;25.618;2023-10-09T05:02:57;14.06;47.69
74416;SHT31;62850;42.428;25.618;2023-10-09T05:05:25;14.02;47.93
74416;SHT31;62850;42.428;25.618;2023-10-09T05:08:03;13.98;48.35
74416;SHT31;62850;42.428;25.618;2023-10-09T05:10:51;14.02;48.13
74416;SHT31;62850;42.428;25.618;2023-10-09T05:13:27;14.02;47.88
74416;SHT31;62850;42.428;25.618;2023-10-09T05:16:22;13.98;47.34
74416;SHT31;62850;42.428;25.618;2023-10-09T05:18:48;13.93;48.52
74416;SHT31;62850;42.428;25.618;2023-10-09T05:21:38;13.98;48.25
74416;SHT31;62850;42.428;25.618;2023-10-09T05:24:07;14.05;47.61
74416;SHT31;62850;42.428;25.618;2023-10-09T05:26:46;14.10;47.90
74416;SHT31;62850;42.428;25.618;2023-10-09T05:29:15;14.19;47.31
74416;SHT31;62850;42.428;25.618;2023-10-09T05:31:50;14.23;46.70
74416;SHT31;62850;42.428;25.618;2023-10-09T05:34:23;14.26;47.30
74416;SHT31;62850;42.428;25.618;2023-10-09T05:36:59;14.26;46.71
74416;SHT31;62850;42.428;25.618;2023-10-09T05:39:42;14.33;47.58
74416;SHT31;62850;42.428;25.618;2023-10-09T05:42:08;14.36;47.22
74416;SHT31;62850;42.428;25.618;2023-10-09T05:44:43;14.41;47.66
74416;SHT31;62850;42.428;25.618;2023-10-09T05:47:41;14.38;47.88
74416;SHT31;62850;42.428;25.618;2023-10-09T05:50:23;14.33;46.90
74416;SHT31;62850;42.428;25.618;2023-10-09T05:52:52;14.32;46.44
74416;SHT31;62850;42.428;25.618;2023-10-09T05:55:23;14.38;46.83
74416;SHT31;62850;42.428;25.618;2023-10-09T05:58:07;14.40;47.42
74416;SHT31;62850;42.428;25.618;2023-10-09T06:00:45;14.38;46.83
74416;SHT31;62850;42.428;25.618;2023-10-09T06:03:29;14.34;47.01
74416;SHT31;62850;42.428;25.618;2023-10-09T06:06:14;14.33;47.60
74416;SHT31;62850;42.428;25.618;2023-10-09T06:08:59;14.36;46.97
74416;SHT31;62850;42.428;25.618;2023-10-09T06:11:44;14.44;47.49
74416;SHT31;62850;42.428;25.618;2023-10-09T06:14:23;14.50;47.49
74416;SHT31;62850;42.428;25.618;2023-10-09T06:17:11;14.50;47.14
74416;SHT31;62850;42.428;25.618;2023-10-09T06:19:50;14.47;46.49
74416;SHT31;62850;42.428;25.618;2023-10-09T06:22:24;14.51;47.05
74416;SHT31;62850;42.428;25.618;2023-10-09T06:25:01;14.56;46.62
74416;SHT31;62850;42.428;25.618;2023-10-09T06:27:34;14.59;46.88
74416;SHT31;62850;42.428;25.618;2023-10-09T06:30:00;14.65;47.09
74416;SHT31;62850;42.428;25.618;2023-10-09T06:32:44;14.68;46.75
74416;SHT31;62850;42.428;25.618;2023-10-09T06:35:17;14.70;46.06
74416;SHT31;62850;42.428;25.618;2023-10-09T06:37:50;14.68;45.98
74416;SHT31;62850;42.428;25.618;2023-10-09T06:40:36;14.72;45.84
74416;SHT31;62850;42.428;25.618;2023-10-09T06:43:02;14.80;45.89
74416;SHT31;62850;42.428;25.618;2023-10-09T06:45:56;14.87;45.86
74416;SHT31;62850;42.428;25.618;2023-10-09T06:48:40;14.87;46.15
74416;SHT31;62850;42.428;25.618;2023-10-09T06:51:10;14.87;45.98
74416;SHT31;62850;42.428;25.618;2023-10-09T06:53:55;14.89;46.41
74416;SHT31;62850;42.428;25.618;2023-10-09T06:58:53;14.77;45.72
74416;SHT31;62850;42.428;25.618;2023-10-09T07:01:25;14.84;46.22
74416;SHT31;62850;42.428;25.618;2023-10-09T07:04:12;14.85;45.85
74416;SHT31;62850;42.428;25.618;2023-10-09T07:06:55;14.93;46.06
74416;SHT31;62850;42.428;25.618;2023-10-09T07:09:22;15.01;46.09
74416;SHT31;62850;42.428;25.618;2023-10-09T07:11:49;15.08;45.17
74416;SHT31;62850;42.428;25.618;2023-10-09T07:14:20;15.13;45.64
74416;SHT31;62850;42.428;25.618;2023-10-09T07:17:08;15.15;45.25
74416;SHT31;62850;42.428;25.618;2023-10-09T07:20:10;15.12;45.39
74416;SHT31;62850;42.428;25.618;2023-10-09T07:22:38;15.12;45.93
74416;SHT31;62850;42.428;25.618;2023-10-09T07:25:22;15.03;45.84
74416;SHT31;62850;42.428;25.618;2023-10-09T07:28:11;15.12;44.71
74416;SHT31;62850;42.428;25.618;2023-10-09T07:31:02;15.19;44.44
74416;SHT31;62850;42.428;25.618;2023-10-09T07:33:28;15.19;45.55
74416;SHT31;62850;42.428;25.618;2023-10-09T07:36:16;15.11;43.66
74416;SHT31;62850;42.428;25.618;2023-10-09T07:38:55;15.21;44.25
74416;SHT31;62850;42.428;25.618;2023-10-09T07:41:20;15.36;44.27
74416;SHT31;62850;42.428;25.618;2023-10-09T07:43:46;15.42;43.81
74416;SHT31;62850;42.428;25.618;2023-10-09T07:46:16;15.51;44.01
74416;SHT31;62850;42.428;25.618;2023-10-09T07:49:04;15.56;44.06
74416;SHT31;62850;42.428;25.618;2023-10-09T07:51:38;15.44;43.27
74416;SHT31;62850;42.428;25.618;2023-10-09T07:54:09;15.50;43.52
74416;SHT31;62850;42.428;25.618;2023-10-09T07:56:39;15.60;43.21
74416;SHT31;62850;42.428;25.618;2023-10-09T07:59:09;15.64;43.59
74416;SHT31;62850;42.428;25.618;2023-10-09T08:01:42;15.66;42.97
74416;SHT31;62850;42.428;25.618;2023-10-09T08:04:20;15.77;43.32
74416;SHT31;62850;42.428;25.618;2023-10-09T08:07:12;15.87;42.60
74416;SHT31;62850;42.428;25.618;2023-10-09T08:10:01;15.94;42.46
74416;SHT31;62850;42.428;25.618;2023-10-09T08:12:45;16.07;42.45
74416;SHT31;62850;42.428;25.618;2023-10-09T08:15:13;16.01;41.27
74416;SHT31;62850;42.428;25.618;2023-10-09T08:17:52;16.08;42.79
74416;SHT31;62850;42.428;25.618;2023-10-09T08:20:39;16.15;41.51
74416;SHT31;62850;42.428;25.618;2023-10-09T08:23:23;16.31;42.19
74416;SHT31;62850;42.428;25.618;2023-10-09T08:26:09;16.47;40.46
74416;SHT31;62850;42.428;25.618;2023-10-09T08:28:39;16.39;40.96
74416;SHT31;62850;42.428;25.618;2023-10-09T08:31:16;16.59;41.49
74416;SHT31;62850;42.428;25.618;2023-10-09T08:34:02;16.60;41.02
74416;SHT31;62850;42.428;25.618;2023-10-09T08:36:29;16.75;41.14
74416;SHT31;62850;42.428;25.618;2023-10-09T08:39:04;16.81;40.34
74416;SHT31;62850;42.428;25.618;2023-10-09T08:41:59;16.99;40.35
74416;SHT31;62850;42.428;25.618;2023-10-09T08:44:26;17.06;40.78
74416;SHT31;62850;42.428;25.618;2023-10-09T08:46:55;17.11;40.93
74416;SHT31;62850;42.428;25.618;2023-10-09T08:49:23;17.02;40.77
74416;SHT31;62850;42.428;25.618;2023-10-09T08:51:50;17.03;39.56
74416;SHT31;62850;42.428;25.618;2023-10-09T08:54:18;16.97;40.69
74416;SHT31;62850;42.428;25.618;2023-10-09T08:56:45;16.91;39.97
74416;SHT31;62850;42.428;25.618;2023-10-09T08:59:18;16.97;39.73
74416;SHT31;62850;42.428;25.618;2023-10-09T09:01:47;17.08;40.43
74416;SHT31;62850;42.428;25.618;2023-10-09T09:07:04;16.99;41.01
74416;SHT31;62850;42.428;25.618;2023-10-09T09:09:30;16.96;40.50
74416;SHT31;62850;42.428;25.618;2023-10-09T09:11:57;16.87;41.26
74416;SHT31;62850;42.428;25.618;2023-10-09T09:14:37;16.90;40.94
74416;SHT31;62850;42.428;25.618;2023-10-09T09:17:04;16.86;41.24
74416;SHT31;62850;42.428;25.618;2023-10-09T09:19:31;16.80;40.28
74416;SHT31;62850;42.428;25.618;2023-10-09T09:21:58;16.77;39.80
74416;SHT31;62850;42.428;25.618;2023-10-09T09:24:24;16.93;40.15
74416;SHT31;62850;42.428;25.618;2023-10-09T09:26:51;17.03;40.08
74416;SHT31;62850;42.428;25.618;2023-10-09T09:29:39;17.14;39.47
74416;SHT31;62850;42.428;25.618;2023-10-09T09:32:12;17.17;39.83
74416;SHT31;62850;42.428;25.618;2023-10-09T09:34:52;17.28;40.27
74416;SHT31;62850;42.428;25.618;2023-10-09T09:37:28;17.42;37.96
74416;SHT31;62850;42.428;25.618;2023-10-09T09:40:00;17.31;37.87
74416;SHT31;62850;42.428;25.618;2023-10-09T09:42:29;17.20;38.87
74416;SHT31;62850;42.428;25.618;2023-10-09T09:45:01;17.37;39.44
74416;SHT31;62850;42.428;25.618;2023-10-09T09:47:27;17.28;38.57
74416;SHT31;62850;42.428;25.618;2023-10-09T09:49:54;17.41;38.54
74416;SHT31;62850;42.428;25.618;2023-10-09T09:52:28;17.49;38.59
74416;SHT31;62850;42.428;25.618;2023-10-09T09:54:54;17.32;38.54
74416;SHT31;62850;42.428;25.618;2023-10-09T09:57:23;17.34;37.88
74416;SHT31;62850;42.428;25.618;2023-10-09T09:59:52;17.32;38.53
74416;SHT31;62850;42.428;25.618;2023-10-09T10:02:35;17.18;39.38
74416;SHT31;62850;42.428;25.618;2023-10-09T10:05:06;17.21;38.88
74416;SHT31;62850;42.428;25.618;2023-10-09T10:07:36;17.20;38.81
74416;SHT31;62850;42.428;25.618;2023-10-09T10:10:40;17.20;38.97
74416;SHT31;62850;42.428;25.618;2023-10-09T10:19:01;17.24;38.77
74416;SHT31;62850;42.428;25.618;2023-10-09T10:21:35;17.18;38.23
74416;SHT31;62850;42.428;25.618;2023-10-09T10:29:45;17.02;39.31
74416;SHT31;62850;42.428;25.618;2023-10-09T10:32:12;16.90;39.29
74416;SHT31;62850;42.428;25.618;2023-10-09T10:37:12;16.99;39.41
74416;SHT31;62850;42.428;25.618;2023-10-09T10:39:50;17.00;39.24
74416;SHT31;62850;42.428;25.618;2023-10-09T10:42:15;17.10;39.31
74416;SHT31;62850;42.428;25.618;2023-10-09T10:45:02;17.14;39.37
74416;SHT31;62850;42.428;25.618;2023-10-09T10:47:28;17.27;39.36
74416;SHT31;62850;42.428;25.618;2023-10-09T10:50:01;17.30;39.26
74416;SHT31;62850;42.428;25.618;2023-10-09T10:52:50;17.31;39.09
74416;SHT31;62850;42.428;25.618;2023-10-09T10:55:23;17.31;39.40
74416;SHT31;62850;42.428;25.618;2023-10-09T10:58:01;17.34;38.93
74416;SHT31;62850;42.428;25.618;2023-10-09T11:00:28;17.21;38.88
74416;SHT31;62850;42.428;25.618;2023-10-09T11:03:22;17.04;39.96
74416;SHT31;62850;42.428;25.618;2023-10-09T11:06:06;17.21;39.37
74416;SHT31;62850;42.428;25.618;2023-10-09T11:08:46;17.38;39.76
74416;SHT31;62850;42.428;25.618;2023-10-09T11:11:22;17.57;39.64
74416;SHT31;62850;42.428;25.618;2023-10-09T11:13:48;17.71;39.26
74416;SHT31;62850;42.428;25.618;2023-10-09T11:16:24;17.82;39.77
74416;SHT31;62850;42.428;25.618;2023-10-09T11:19:14;17.81;39.66
74416;SHT31;62850;42.428;25.618;2023-10-09T11:21:54;17.83;39.48
74416;SHT31;62850;42.428;25.618;2023-10-09T11:24:32;17.82;39.65
74416;SHT31;62850;42.428;25.618;2023-10-09T11:27:06;17.78;39.42
74416;SHT31;62850;42.428;25.618;2023-10-09T11:29:35;17.71;39.35
74416;SHT31;62850;42.428;25.618;2023-10-09T11:32:15;17.78;39.03
74416;SHT31;62850;42.428;25.618;2023-10-09T11:34:50;17.74;39.36
74416;SHT31;62850;42.428;25.618;2023-10-09T11:37:23;17.82;39.41
74416;SHT31;62850;42.428;25.618;2023-10-09T11:39:54;17.89;38.83
74416;SHT31;62850;42.428;25.618;2023-10-09T11:42:25;17.90;38.82
74416;SHT31;62850;42.428;25.618;2023-10-09T11:45:20;17.93;39.03
74416;SHT31;62850;42.428;25.618;2023-10-09T11:47:50;18.05;39.52
74416;SHT31;62850;42.428;25.618;2023-10-09T11:50:45;18.02;38.81
74416;SHT31;62850;42.428;25.618;2023-10-09T11:53:44;18.18;39.00
74416;SHT31;62850;42.428;25.618;2023-10-09T11:56:11;18.32;38.91
74416;SHT31;62850;42.428;25.618;2023-10-09T11:58:42;18.40;38.81
74416;SHT31;62850;42.428;25.618;2023-10-09T12:01:12;18.47;38.70
74416;SHT31;62850;42.428;25.618;2023-10-09T12:03:51;18.50;38.63
74416;SHT31;62850;42.428;25.618;2023-10-09T12:06:19;18.47;38.76
74416;SHT31;62850;42.428;25.618;2023-10-09T12:08:48;18.37;38.50
74416;SHT31;62850;42.428;25.618;2023-10-09T12:11:14;18.43;38.44
74416;SHT31;62850;42.428;25.618;2023-10-09T12:13:48;18.40;38.70
74416;SHT31;62850;42.428;25.618;2023-10-09T12:16:13;18.53;38.69
74416;SHT31;62850;42.428;25.618;2023-10-09T12:18:40;18.84;37.88
74416;SHT31;62850;42.428;25.618;2023-10-09T12:21:07;18.99;38.13
74416;SHT31;62850;42.428;25.618;2023-10-09T12:23:32;19.11;37.84
74416;SHT31;62850;42.428;25.618;2023-10-09T12:26:04;19.40;37.56
74416;SHT31;62850;42.428;25.618;2023-10-09T12:28:30;19.74;36.69
74416;SHT31;62850;42.428;25.618;2023-10-09T12:30:59;19.80;36.35
74416;SHT31;62850;42.428;25.618;2023-10-09T12:33:27;20.17;35.58
74416;SHT31;62850;42.428;25.618;2023-10-09T12:35:54;20.35;35.77
74416;SHT31;62850;42.428;25.618;2023-10-09T12:38:26;20.26;35.21
74416;SHT31;62850;42.428;25.618;2023-10-09T12:41:06;20.48;34.76
74416;SHT31;62850;42.428;25.618;2023-10-09T12:43:48;20.56;34.31
74416;SHT31;62850;42.428;25.618;2023-10-09T12:46:14;20.56;34.16
74416;SHT31;62850;42.428;25.618;2023-10-09T12:48:45;20.34;34.58
74416;SHT31;62850;42.428;25.618;2023-10-09T12:51:14;20.34;35.07
74416;SHT31;62850;42.428;25.618;2023-10-09T12:53:43;20.38;34.78
74416;SHT31;62850;42.428;25.618;2023-10-09T12:56:08;20.41;35.79
74416;SHT31;62850;42.428;25.618;2023-10-09T12:58:34;20.15;35.85
74416;SHT31;62850;42.428;25.618;2023-10-09T13:01:03;20.17;35.62
74416;SHT31;62850;42.428;25.618;2023-10-09T13:03:35;20.21;35.98
74416;SHT31;62850;42.428;25.618;2023-10-09T13:06:04;20.22;36.02
74416;SHT31;62850;42.428;25.618;2023-10-09T13:08:33;20.07;36.31
74416;SHT31;62850;42.428;25.618;2023-10-09T13:11:05;19.98;36.10
74416;SHT31;62850;42.428;25.618;2023-10-09T13:13:38;19.88;36.60
74416;SHT31;62850;42.428;25.618;2023-10-09T13:16:11;19.85;36.61
74416;SHT31;62850;42.428;25.618;2023-10-09T13:21:21;19.66;37.09
74416;SHT31;62850;42.428;25.618;2023-10-09T13:23:47;19.64;36.54
74416;SHT31;62850;42.428;25.618;2023-10-09T13:26:15;19.66;35.91
74416;SHT31;62850;42.428;25.618;2023-10-09T13:28:50;19.63;36.44
74416;SHT31;62850;42.428;25.618;2023-10-09T13:31:16;19.54;37.69
74416;SHT31;62850;42.428;25.618;2023-10-09T13:33:42;19.43;37.08
74416;SHT31;62850;42.428;25.618;2023-10-09T13:36:09;19.40;37.31
74416;SHT31;62850;42.428;25.618;2023-10-09T13:38:54;19.40;37.12
74416;SHT31;62850;42.428;25.618;2023-10-09T13:41:21;19.32;37.75
74416;SHT31;62850;42.428;25.618;2023-10-09T13:43:47;19.33;37.21
74416;SHT31;62850;42.428;25.618;2023-10-09T13:46:13;19.37;37.56
74416;SHT31;62850;42.428;25.618;2023-10-09T13:48:41;19.39;36.99
74416;SHT31;62850;42.428;25.618;2023-10-09T13:51:11;19.37;36.76
74416;SHT31;62850;42.428;25.618;2023-10-09T13:53:43;19.37;37.62
74416;SHT31;62850;42.428;25.618;2023-10-09T13:56:16;19.39;37.36
74416;SHT31;62850;42.428;25.618;2023-10-09T13:58:50;19.36;37.83
74416;SHT31;62850;42.428;25.618;2023-10-09T14:01:19;19.26;37.91
74416;SHT31;62850;42.428;25.618;2023-10-09T14:03:58;19.20;37.05
74416;SHT31;62850;42.428;25.618;2023-10-09T14:06:25;19.26;37.19
74416;SHT31;62850;42.428;25.618;2023-10-09T14:09:05;19.22;37.99
74416;SHT31;62850;42.428;25.618;2023-10-09T14:11:31;19.36;37.59
74416;SHT31;62850;42.428;25.618;2023-10-09T14:13:57;19.39;38.28
74416;SHT31;62850;42.428;25.618;2023-10-09T14:16:27;19.46;37.81
74416;SHT31;62850;42.428;25.618;2023-10-09T14:18:54;19.49;37.36
74416;SHT31;62850;42.428;25.618;2023-10-09T14:21:26;19.49;37.50
74416;SHT31;62850;42.428;25.618;2023-10-09T14:23:53;19.64;37.84
74416;SHT31;62850;42.428;25.618;2023-10-09T14:26:26;19.73;36.89
74416;SHT31;62850;42.428;25.618;2023-10-09T14:28:56;19.74;37.11
74416;SHT31;62850;42.428;25.618;2023-10-09T14:31:25;19.85;37.23
74416;SHT31;62850;42.428;25.618;2023-10-09T14:33:57;20.00;37.08
74416;SHT31;62850;42.428;25.618;2023-10-09T14:36:24;20.14;36.74
74416;SHT31;62850;42.428;25.618;2023-10-09T14:38:58;20.17;37.02
74416;SHT31;62850;42.428;25.618;2023-10-09T14:41:25;20.22;36.90
74416;SHT31;62850;42.428;25.618;2023-10-09T14:43:52;20.28;36.81
74416;SHT31;62850;42.428;25.618;2023-10-09T14:46:18;20.26;36.79
74416;SHT31;62850;42.428;25.618;2023-10-09T14:48:51;20.24;36.60
74416;SHT31;62850;42.428;25.618;2023-10-09T14:51:22;20.15;36.63
74416;SHT31;62850;42.428;25.618;2023-10-09T14:53:57;20.11;37.26
74416;SHT31;62850;42.428;25.618;2023-10-09T14:56:26;20.05;37.18
74416;SHT31;62850;42.428;25.618;2023-10-09T14:58:58;20.01;37.09
74416;SHT31;62850;42.428;25.618;2023-10-09T15:01:25;19.93;37.89
74416;SHT31;62850;42.428;25.618;2023-10-09T15:03:57;19.87;37.55
74416;SHT31;62850;42.428;25.618;2023-10-09T15:06:25;19.75;37.67
74416;SHT31;62850;42.428;25.618;2023-10-09T15:08:59;19.69;37.80
74416;SHT31;62850;42.428;25.618;2023-10-09T15:11:33;19.56;39.08
74416;SHT31;62850;42.428;25.618;2023-10-09T15:13:59;19.45;38.40
74416;SHT31;62850;42.428;25.618;2023-10-09T15:16:25;19.39;38.60
74416;SHT31;62850;42.428;25.618;2023-10-09T15:18:56;19.32;39.08
74416;SHT31;62850;42.428;25.618;2023-10-09T15:21:27;19.18;39.47
74416;SHT31;62850;42.428;25.618;2023-10-09T15:23:54;19.15;38.88
74416;SHT31;62850;42.428;25.618;2023-10-09T15:26:20;19.06;39.13
74416;SHT31;62850;42.428;25.618;2023-10-09T15:28:48;19.01;39.43
74416;SHT31;62850;42.428;25.618;2023-10-09T15:31:16;18.94;39.32
74416;SHT31;62850;42.428;25.618;2023-10-09T15:33:42;18.87;39.75
74416;SHT31;62850;42.428;25.618;2023-10-09T15:36:15;18.78;39.83
74416;SHT31;62850;42.428;25.618;2023-10-09T15:38:43;18.72;39.84
74416;SHT31;62850;42.428;25.618;2023-10-09T15:41:09;18.63;40.62
74416;SHT31;62850;42.428;25.618;2023-10-09T15:43:37;18.61;39.59
74416;SHT31;62850;42.428;25.618;2023-10-09T15:46:10;18.50;40.28
74416;SHT31;62850;42.428;25.618;2023-10-09T15:48:40;18.44;40.70
74416;SHT31;62850;42.428;25.618;2023-10-09T15:51:09;18.36;41.66
74416;SHT31;62850;42.428;25.618;2023-10-09T15:53:37;18.32;41.63
74416;SHT31;62850;42.428;25.618;2023-10-09T15:56:03;18.26;42.06
74416;SHT31;62850;42.428;25.618;2023-10-09T15:58:29;18.20;42.42
74416;SHT31;62850;42.428;25.618;2023-10-09T16:00:55;18.17;42.24
74416;SHT31;62850;42.428;25.618;2023-10-09T16:03:20;17.78;42.12
74416;SHT31;62850;42.428;25.618;2023-10-09T16:05:46;17.58;42.68
74416;SHT31;62850;42.428;25.618;2023-10-09T16:08:12;17.45;42.81
74416;SHT31;62850;42.428;25.618;2023-10-09T16:10:38;17.27;43.70
74416;SHT31;62850;42.428;25.618;2023-10-09T16:13:03;17.23;42.74
74416;SHT31;62850;42.428;25.618;2023-10-09T16:15:29;17.10;43.11
74416;SHT31;62850;42.428;25.618;2023-10-09T16:17:55;17.08;43.69